Tiempo atmosférico en la estación meteorológica de Aldeanueva de Serrezuela, Segovia (1135 m.)



Fecha
DESCASC
Temp. máxima en grados centígrados (hora)
DESCASC
Temp. mínima en grados centígrados (hora)
DESCASC
Temp. media en grados centígrados
DESCASC
Racha de viento máxima en m/sg (hora)
DESCASC
Velocidad máxima media en intervalos de 10 minutos(hora)
DESCASC
Precipitaciones diarias en mm
DESCASC
Precipitaciones de 00:00 a 06:00 en mm
DESCASC
Precipitaciones de 06:00 a 12:00 en mm
DESCASC
Precipitaciones de 12:00 a 18:00 en mm
DESCASC
Precipitaciones de 18:00 a 24:00 en mm
DESCASC
19-02-2019 10.9 (15:50) 3.8 (08:30) 7.3 5.28 (05:00) 3.89 (06:00) 0 0 0 0 0
18-02-2019 14.1 (15:00) 5.4 (04:20) 9.8 8.89 (14:30) 5.83 (05:50) 0 0 0 0 0
17-02-2019 13.8 (13:50) 5.4 (00:00) 9.6 12.22 (14:10) 8.33 (14:10) 0 0 0 0 0
16-02-2019 15.1 (16:10) 7.1 (00:00) 11.1 12.78 (22:00) 9.17 (22:10) 0 0 0 0 0
15-02-2019 14.3 (16:00) 5.3 (00:00) 9.8 4.72 (23:00) 3.89 (23:40) 0 0 0 0 0
14-02-2019 17.6 (16:20) 7.6 (00:00) 12.6 10.28 (01:20) 6.67 (01:20) 0 0 0 0 0
13-02-2019 13.2 (16:00) 4.9 (00:00) 9 7.78 (23:50) 5 (23:50) 0 0 0 0 0
12-02-2019 13.2 (15:10) -1.2 (-00:0) 6 6.11 (13:40) 4.44 (13:50) 0 0 0 0 0
11-02-2019 7.3 (16:30) -1.3 (-00:0) 3 6.67 (14:40) 3.89 (17:10) 0 0 0 0 0
10-02-2019 9 (14:30) 3.1 (00:00) 6 17.78 (11:40) 11.94 (15:00) 0 0 0 0 0
09-02-2019 11 (15:50) 3.3 (00:00) 7.1 10.56 (22:00) 7.22 (21:40) 0 0 0 0 0
08-02-2019 11.7 (15:50) 2.3 (00:00) 7 10 (12:50) 6.67 (12:50) 0 0 0 0 0
07-02-2019 9.8 (15:40) 1.9 (00:00) 5.9 8.89 (06:30) 6.11 (06:30) 0 0 0 0 0
06-02-2019 12.3 (15:00) 4.3 (04:50) 8.3 7.78 (15:50) 5.28 (15:50) 0 0 0 0 0
05-02-2019 11.2 (16:20) 2.7 (00:30) 6.9 5.56 (12:40) 3.89 (12:40) 0 0 0 0 0
04-02-2019 7 (16:30) -3.4 (-00:0) 1.8 5.28 (16:20) 3.61 (16:20) 0 0 0 0 0
03-02-2019 1.5 (16:10) -4.1 (-00:0) -1.3 11.11 (13:40) 7.22 (16:20) 1.6 0 0 1.6 0
02-02-2019 1.4 (16:40) -2.2 (-00:0) -0.4 18.06 (02:20) 11.39 (01:10) 0.4 0 0 0.4 0
01-02-2019 6.4 (00:20) -0.4 (00:00) 3 23.61 (15:00) 15.28 (14:40) 6.2 5.6 0 0.6 0
31-01-2019 9.1 (14:30) 4.8 (00:00) 7 21.39 (17:40) 13.61 (18:40) 10.4 2.4 1.6 0.2 6.2
30-01-2019 5.1 (23:59) -1.6 (-00:0) 1.7 18.61 (22:40) 12.22 (23:10) 5.6 0 0 0.8 4.8
29-01-2019 4.8 (16:40) -0.7 (-00:0) 2.1 20 (16:00) 12.5 (16:20) 1 0 0 1 0
28-01-2019 8.8 (16:20) -0.6 (-00:0) 4.1 15.56 (10:10) 10.83 (10:20) 0 0 0 0 0
27-01-2019 6.5 (15:10) -0.1 (00:00) 3.2 15 (17:00) 9.44 (13:00) 0 0 0 0 0
26-01-2019 11.3 (16:10) 0 (00:00) 5.7 10.83 (23:40) 7.78 (23:40) 0 0 0 0 0
25-01-2019 7.3 (16:20) 1.7 (00:00) 4.5 8.89 (13:40) 5.28 (14:50) 0 0 0 0 0
24-01-2019 7.1 (13:50) 3.3 (00:00) 5.2 10 (16:00) 6.67 (03:00) 1 0.6 0.4 0 0

Gráficas

Temp. máximas Temp. mínimas Temp. medias Precipitaciones Rachas de viento máximas Velocidades máximas media en intervalos de 10 minutos

Datos horarios

Fecha y hora oficial Temperatura (ºC) Velocidad del viento (km/h) Dirección del viento Racha (km/h) Dirección de racha Precipitación (mm) Presión (hPa) Tendencia (hPa) Humedad (%)
2019-02-22 23:00:00 9.8 2 Sur 8 Sudoeste 0 -- -- 33
2019-02-22 22:00:00 10.3 6 Sudoeste 9 Sudoeste 0 -- -- 31
2019-02-22 21:00:00 10.8 8 Sudoeste 10 Sudoeste 0 -- -- 29
2019-02-22 20:00:00 10.1 9 Sudoeste 12 Sudoeste 0 -- -- 32
2019-02-22 19:00:00 12.2 8 Oeste 15 Sudoeste 0 -- -- 30
2019-02-22 18:00:00 15.2 12 Oeste 22 Oeste 0 -- -- 24
2019-02-22 17:00:00 16.9 9 Oeste 21 Sudoeste 0 -- -- 21
2019-02-22 16:00:00 16.5 16 Oeste 25 Oeste 0 -- -- 21
2019-02-22 15:00:00 16.1 11 Oeste 22 Oeste 0 -- -- 25
2019-02-22 14:00:00 16 6 Oeste 19 Sudoeste 0 -- -- 21
2019-02-22 13:00:00 15.2 8 Sur 19 Sudeste 0 -- -- 20
2019-02-22 12:00:00 14.2 10 Sudeste 18 Sur 0 -- -- 25
2019-02-22 11:00:00 13.1 8 Este 19 Este 0 -- -- 30
2019-02-22 10:00:00 11.6 8 Este 19 Este 0 -- -- 32
2019-02-22 09:00:00 7.9 9 Este 14 Sudeste 0 -- -- 36
2019-02-22 08:00:00 6.2 9 Sudeste 12 Sudeste 0 -- -- 40
2019-02-22 07:00:00 5.8 9 Sudeste 14 Sudeste 0 -- -- 42
2019-02-22 06:00:00 6.5 9 Sudeste 12 Sudeste 0 -- -- 37
2019-02-22 05:00:00 7.1 11 Sudeste 13 Sudeste 0 -- -- 37
2019-02-22 04:00:00 8.1 5 Sur 12 Sudoeste 0 -- -- 35
2019-02-22 03:00:00 8.4 11 Sur 12 Sur 0 -- -- 34
2019-02-22 02:00:00 8.3 10 Sur 15 Sudoeste 0 -- -- 34
2019-02-22 01:00:00 8.2 13 Sur 14 Sudoeste 0 -- -- 33
2019-02-22 00:00:00 8 12 Sur 17 Sur 0 -- -- 39
2019-02-21 23:00:00 8.4 13 Sur 19 Sur 0 -- -- 42
2019-02-21 22:00:00 8.4 11 Sur 17 Sur 0 -- -- 45
2019-02-21 21:00:00 8.6 12 Sur 18 Sur 0 -- -- 44
2019-02-21 20:00:00 9.1 13 Sur 19 Sur 0 -- -- 45
2019-02-21 19:00:00 10.7 12 Sur 24 Sudeste 0 -- -- 42
2019-02-21 18:00:00 13.1 13 Sur 24 Sur 0 -- -- 39
2019-02-21 17:00:00 14.1 14 Sur 25 Sudoeste 0 -- -- 40
2019-02-21 16:00:00 14.9 13 Sudoeste 26 Sur 0 -- -- 37
2019-02-21 15:00:00 14 8 Sudeste 22 Sur 0 -- -- 42
2019-02-21 14:00:00 14 10 Sudoeste 33 Sudoeste 0 -- -- 42
2019-02-21 13:00:00 12.6 9 Sur 19 Sur 0 -- -- 43
2019-02-21 12:00:00 11.8 5 Sur 14 Sur 0 -- -- 50
2019-02-21 11:00:00 10.5 8 Sur 17 Sur 0 -- -- 54
2019-02-21 10:00:00 9.2 8 Sur 13 Sur 0 -- -- 61
2019-02-21 09:00:00 6.9 10 Sur 14 Sur 0 -- -- 67
2019-02-21 08:00:00 5 4 Sudeste 13 Sur 0 -- -- 73
2019-02-21 07:00:00 5.3 12 Sur 17 Sur 0 -- -- 73
2019-02-21 06:00:00 5.7 13 Sur 16 Sur 0 -- -- 74
2019-02-21 05:00:00 5.6 12 Sur 15 Sur 0 -- -- 74
2019-02-21 04:00:00 6 5 Sur 12 Sur 0 -- -- 71
2019-02-21 03:00:00 5.5 9 Sur 11 Sudoeste 0 -- -- 71
2019-02-21 02:00:00 5.5 6 Sudoeste 9 Sudoeste 0 -- -- 67
2019-02-21 01:00:00 6.3 7 Sudeste 8 Este 0 -- -- 63
2019-02-21 00:00:00 5.2 0 Calma -- -- 0 -- -- 67
2019-02-20 23:00:00 6.8 0 Calma -- -- 0 -- -- 64
2019-02-20 22:00:00 7.1 0 Calma 6 Sur 0 -- -- 67
2019-02-20 21:00:00 7.1 7 Sudeste 10 Sudeste 0 -- -- 69
2019-02-20 20:00:00 7.9 5 Sur 10 Sudeste 0 -- -- 61
2019-02-20 19:00:00 9.7 2 Sur 12 Sudoeste 0 -- -- 54
2019-02-20 18:00:00 11.2 8 Sudoeste 16 Sudoeste 0 -- -- 50
2019-02-20 17:00:00 11.3 11 Sudoeste 24 Oeste 0 -- -- 49
2019-02-20 16:00:00 11.7 14 Oeste 32 Oeste 0 -- -- 49
2019-02-20 15:00:00 10.9 15 Oeste 30 Sudoeste 0 -- -- 52
2019-02-20 14:00:00 10.3 13 Oeste 29 Oeste 0 -- -- 53
2019-02-20 13:00:00 8.9 12 Sudoeste 20 Sudoeste 0 -- -- 67
2019-02-20 12:00:00 8.3 11 Oeste 17 Oeste 0 -- -- 73
2019-02-20 11:00:00 7.9 7 Oeste 14 Oeste 0 -- -- 76
2019-02-20 10:00:00 7 4 Sur 6 Sur 0 -- -- 81
2019-02-20 09:00:00 4.5 5 Sur 8 Sudoeste 0 -- -- 88
2019-02-20 08:00:00 3.9 5 Sudoeste 9 Sudoeste 0 -- -- 89
2019-02-20 07:00:00 3.9 6 Sudoeste 10 Sudoeste 0 -- -- 84
2019-02-20 06:00:00 4.2 8 Sudoeste 11 Sudoeste 0 -- -- 82
2019-02-20 05:00:00 4.2 8 Sur 10 Sur 0 -- -- 83
2019-02-20 04:00:00 5 5 Sudeste 6 Sudeste 0 -- -- 81
2019-02-20 03:00:00 4.3 3 Sur 6 Sudoeste 0 -- -- 80
2019-02-20 02:00:00 4.1 5 Sur 7 Sudoeste 0 -- -- 83
2019-02-20 01:00:00 5.7 5 Sur 8 Sur 0 -- -- 81
2019-02-20 00:00:00 4.9 7 Sudoeste 10 Sudoeste 0 -- -- 83
2019-02-19 23:00:00 5.6 9 Sudoeste 12 Sudoeste 0 -- -- 79
2019-02-19 22:00:00 5.7 8 Sur 9 Sur 0 -- -- 78
2019-02-19 21:00:00 6.4 5 Sur 8 Sur 0 -- -- 77
2019-02-19 20:00:00 6.8 4 Sur 6 Sudoeste 0 -- -- 71
2019-02-19 19:00:00 7.7 5 Sudoeste 12 Oeste 0 -- -- 67
2019-02-19 18:00:00 9.6 9 Oeste 14 Oeste 0 -- -- 61
2019-02-19 17:00:00 9.8 4 Oeste 10 Nordeste 0 -- -- 62
2019-02-19 16:00:00 10.4 5 Nordeste 12 Nordeste 0 -- -- 61
2019-02-19 15:00:00 10.1 3 Norte 17 Oeste 0 -- -- 62
2019-02-19 14:00:00 10.5 8 Sudoeste 16 Sudoeste 0 -- -- 61
2019-02-19 13:00:00 8.9 5 Nordeste 15 Nordeste 0 -- -- 70
2019-02-19 12:00:00 9.3 7 Nordeste 14 Nordeste 0 -- -- 68
2019-02-19 11:00:00 7.9 4 Noroeste 10 Noroeste 0 -- -- 72
2019-02-19 10:00:00 6.5 3 Sudoeste 6 Sur 0 -- -- 76
2019-02-19 09:00:00 4.7 5 Sudoeste 8 Sudoeste 0 -- -- 80
2019-02-19 08:00:00 4.3 6 Oeste 9 Sudoeste 0 -- -- 79
2019-02-19 07:00:00 5 7 Sudoeste 19 Sudoeste 0 -- -- 76
2019-02-19 06:00:00 5.6 14 Sudoeste 18 Sudoeste 0 -- -- 77
2019-02-19 05:00:00 5.1 11 Sudoeste 19 Sudoeste 0 -- -- 76
2019-02-19 04:00:00 6.2 4 Sur 11 Oeste 0 -- -- 60
2019-02-19 03:00:00 6.6 8 Sur 10 Sur 0 -- -- 58
2019-02-19 02:00:00 6.5 3 Sur 9 Sur 0 -- -- 58
2019-02-19 01:00:00 5.8 8 Sur 12 Sudoeste 0 -- -- 61
2019-02-19 00:00:00 5.9 9 Sudoeste 11 Sudoeste 0 -- -- 62
2019-02-18 23:00:00 6.9 5 Sudoeste 13 Sudoeste 0 -- -- 59
2019-02-18 22:00:00 7.1 10 Sudoeste 13 Sudoeste 0 -- -- 59
2019-02-18 21:00:00 7.2 7 Sudoeste 14 Sudoeste 0 -- -- 56
2019-02-18 20:00:00 8.3 11 Sur 17 Sur 0 -- -- 46
2019-02-18 19:00:00 9.5 11 Sur 21 Sur 0 -- -- 43
2019-02-18 18:00:00 11.4 12 Sur 25 Sur 0 -- -- 40
2019-02-18 17:00:00 12.8 16 Sur 30 Sudeste 0 -- -- 38
2019-02-18 16:00:00 13.3 14 Sur 27 Oeste 0 -- -- 38
2019-02-18 15:00:00 14.1 15 Sur 32 Sudoeste 0 -- -- 36
2019-02-18 14:00:00 13.6 14 Sur 30 Sur 0 -- -- 38
2019-02-18 13:00:00 12.9 15 Sur 25 Sur 0 -- -- 38
2019-02-18 12:00:00 12.1 15 Sur 29 Sur 0 -- -- 39
2019-02-18 11:00:00 10.9 16 Sudeste 24 Sudeste 0 -- -- 42
2019-02-18 10:00:00 8.7 15 Sudeste 21 Sur 0 -- -- 48
2019-02-18 09:00:00 7.3 12 Sudeste 23 Sudeste 0 -- -- 52
2019-02-18 08:00:00 6.2 17 Sudeste 26 Sudeste 0 -- -- 56
2019-02-18 07:00:00 6.1 19 Sudeste 27 Sur 0 -- -- 56
2019-02-18 06:00:00 5.9 20 Sur 32 Sur 0 -- -- 59
2019-02-18 05:00:00 5.9 18 Sudeste 27 Sudeste 0 -- -- 55
2019-02-18 04:00:00 6.3 17 Sur 26 Sur 0 -- -- 54
2019-02-18 03:00:00 6.4 14 Sur 22 Sur 0 -- -- 49
2019-02-18 02:00:00 6.3 17 Sudeste 31 Sur 0 -- -- 48
2019-02-18 01:00:00 7.2 18 Sur 27 Sur 0 -- -- 42
2019-02-18 00:00:00 6.9 11 Sur 24 Sur 0 -- -- 39
2019-02-17 23:00:00 7.6 17 Sur 27 Sur 0 -- -- 37
2019-02-17 22:00:00 8.1 21 Sur 31 Sur 0 -- -- 36
2019-02-17 21:00:00 7.7 18 Sur 33 Sur 0 -- -- 37
2019-02-17 20:00:00 7.8 19 Sur 34 Sudeste 0 -- -- 38
2019-02-17 19:00:00 8.5 21 Sur 37 Sur 0 -- -- 35
2019-02-17 18:00:00 10.1 22 Sudeste 40 Sudeste 0 -- -- 33
2019-02-17 17:00:00 12.1 21 Sudeste 35 Sudeste 0 -- -- 26
2019-02-17 16:00:00 12.9 22 Sur 40 Sur 0 -- -- 23
2019-02-17 15:00:00 13 25 Sur 44 Sur 0 -- -- 24
2019-02-17 14:00:00 13.6 25 Sur 38 Sudeste 0 -- -- 26
2019-02-17 13:00:00 13.1 17 Sur 27 Sur 0 -- -- 27
2019-02-17 12:00:00 12.4 15 Sur 26 Sudeste 0 -- -- 27
2019-02-17 11:00:00 12.1 10 Este 23 Sudeste 0 -- -- 24
2019-02-17 10:00:00 10 12 Sudeste 27 Sudeste 0 -- -- 26
2019-02-17 09:00:00 7.1 21 Sudeste 29 Sudeste 0 -- -- 27
2019-02-17 08:00:00 5.9 15 Sudeste 26 Sudeste 0 -- -- 34
2019-02-17 07:00:00 6.3 13 Sudeste 28 Sudeste 0 -- -- 37
2019-02-17 06:00:00 6.3 13 Sudeste 25 Sudeste 0 -- -- 36
2019-02-17 05:00:00 6.8 6 Este 32 Sudeste 0 -- -- 34
2019-02-17 04:00:00 7.2 21 Sur 31 Sudeste 0 -- -- 34
2019-02-17 03:00:00 6.8 16 Sudeste 39 Sudeste 0 -- -- 41
2019-02-17 02:00:00 8.1 24 Sur 39 Sur 0 -- -- 39
2019-02-17 01:00:00 7.8 19 Sur 30 Sur 0 -- -- 38
2019-02-17 00:00:00 7.9 18 Sur 35 Sur 0 -- -- 39
2019-02-16 23:00:00 8.8 28 Sur 44 Sur 0 -- -- 38
2019-02-16 22:00:00 9.4 33 Sur 46 Sur 0 -- -- 38
2019-02-16 21:00:00 9.3 15 Sur 36 Sudeste 0 -- -- 37
2019-02-16 20:00:00 9.5 24 Sudeste 41 Sudeste 0 -- -- 37
2019-02-16 19:00:00 10 24 Sudeste 39 Sur 0 -- -- 35
2019-02-16 18:00:00 12.3 20 Sur 35 Sudeste 0 -- -- 30
2019-02-16 17:00:00 14.4 17 Sur 28 Sur 0 -- -- 27
2019-02-16 16:00:00 14.9 17 Sur 35 Sur 0 -- -- 30
2019-02-16 15:00:00 14.6 18 Sur 35 Sur 0 -- -- 31
2019-02-16 14:00:00 14.5 17 Sur 31 Sudoeste 0 -- -- 40
2019-02-16 13:00:00 13.3 19 Sudeste 30 Sur 0 -- -- 45
2019-02-16 12:00:00 12.3 18 Sudeste 35 Sudeste 0 -- -- 49
2019-02-16 11:00:00 11.8 5 Este 24 Sur 0 -- -- 47
2019-02-16 10:00:00 9.8 13 Sudeste 30 Sur 0 -- -- 52
2019-02-16 09:00:00 8.6 15 Sur 28 Sudeste 0 -- -- 56
2019-02-16 08:00:00 7.3 17 Sudeste 28 Sudeste 0 -- -- 61
2019-02-16 07:00:00 8 19 Sudeste 24 Sudeste 0 -- -- 55
2019-02-16 06:00:00 7.9 12 Sur 18 Sudeste 0 -- -- 53
2019-02-16 05:00:00 7.7 12 Sudeste 18 Sudeste 0 -- -- 52
2019-02-16 04:00:00 8.4 14 Sudeste 18 Sudeste 0 -- -- 50
2019-02-16 03:00:00 8.6 10 Sur 12 Sur 0 -- -- 47
2019-02-16 02:00:00 9.5 8 Sur 13 Sudeste 0 -- -- 43
2019-02-16 01:00:00 9.1 11 Sudeste 18 Sudeste 0 -- -- 34
2019-02-16 00:00:00 9.6 13 Este 17 Este 0 -- -- 31
2019-02-15 23:00:00 8.7 14 Este 17 Este 0 -- -- 43
2019-02-15 22:00:00 7.6 10 Este 15 Este 0 -- -- 49
2019-02-15 21:00:00 8.5 11 Este 15 Nordeste 0 -- -- 48
2019-02-15 20:00:00 8.4 12 Este 14 Este 0 -- -- 47
2019-02-15 19:00:00 10.1 8 Este 12 Nordeste 0 -- -- 44
2019-02-15 18:00:00 13 9 Nordeste 17 Nordeste 0 -- -- 34
2019-02-15 17:00:00 14 10 Nordeste 16 Nordeste 0 -- -- 32
2019-02-15 16:00:00 14.3 8 Nordeste 16 Nordeste 0 -- -- 36
2019-02-15 15:00:00 13.7 6 Este 14 Nordeste 0 -- -- 39
2019-02-15 14:00:00 12.8 6 Norte 13 Norte 0 -- -- 44
2019-02-15 13:00:00 12.2 5 Norte 13 Norte 0 -- -- 43
2019-02-15 12:00:00 11.8 6 Norte 10 Nordeste 0 -- -- 43
2019-02-15 11:00:00 11.9 5 Norte 8 Norte 0 -- -- 43
2019-02-15 10:00:00 10.7 2 Este 5 Este 0 -- -- 42
2019-02-15 09:00:00 6.7 0 Calma 8 Este 0 -- -- 50
2019-02-15 08:00:00 5.9 3 Sudoeste 4 Sudoeste 0 -- -- 51
2019-02-15 07:00:00 6.9 4 Sur 6 Sur 0 -- -- 46
2019-02-15 06:00:00 6.8 4 Sur 5 Sudoeste 0 -- -- 41
2019-02-15 05:00:00 8.2 0 Calma 4 Sudeste 0 -- -- 35
2019-02-15 04:00:00 8.1 2 Este 3 Sudeste 0 -- -- 38
2019-02-15 03:00:00 7.5 0 Calma 7 Este 0 -- -- 40
2019-02-15 02:00:00 7.2 2 Nordeste 7 Este 0 -- -- 36
2019-02-15 01:00:00 8.1 6 Este 10 Sudeste 0 -- -- 33
2019-02-15 00:00:00 8 5 Sudeste 10 Sudeste 0 -- -- 34
2019-02-14 23:00:00 7.8 8 Sudeste 11 Sudeste 0 -- -- 39
2019-02-14 22:00:00 9.1 5 Sur 10 Sudoeste 0 -- -- 39
2019-02-14 21:00:00 8.9 8 Sudoeste 10 Sudoeste 0 -- -- 40
2019-02-14 20:00:00 9.9 6 Sudoeste 11 Sudoeste 0 -- -- 38
2019-02-14 19:00:00 11.5 10 Sudoeste 22 Sudoeste 0 -- -- 38
2019-02-14 18:00:00 15.7 13 Oeste 22 Sudoeste 0 -- -- 27
2019-02-14 17:00:00 17.1 9 Sur 19 Sur 0 -- -- 20
2019-02-14 16:00:00 17.3 7 Sur 18 Sudeste 0 -- -- 19
2019-02-14 15:00:00 16.5 9 Sudeste 20 Sudeste 0 -- -- 18
2019-02-14 14:00:00 15.7 13 Sudeste 23 Sur 0 -- -- 25
2019-02-14 13:00:00 14.6 10 Sur 19 Sur 0 -- -- 23
2019-02-14 12:00:00 13.9 6 Este 14 Sudeste 0 -- -- 26
2019-02-14 11:00:00 12.7 5 Este 21 Sur 0 -- -- 26
2019-02-14 10:00:00 10.4 5 Nordeste 21 Oeste 0 -- -- 31
2019-02-14 09:00:00 8.5 2 Norte 14 Sur 0 -- -- 32
2019-02-14 08:00:00 7.9 0 Calma 19 Sudeste 0 -- -- 30
2019-02-14 07:00:00 8.7 16 Sudeste 25 Sudeste 0 -- -- 30
2019-02-14 06:00:00 8.5 14 Sudeste 31 Sudeste 0 -- -- 30
2019-02-14 05:00:00 8 18 Sudeste 29 Sudeste 0 -- -- 35
2019-02-14 04:00:00 8 19 Sudeste 27 Sudeste 0 -- -- 42
2019-02-14 03:00:00 8.4 17 Sudeste 30 Sur 0 -- -- 42
2019-02-14 02:00:00 8.9 21 Sur 37 Sudeste 0 -- -- 40
2019-02-14 01:00:00 8.3 19 Sudeste 31 Sudeste 0 -- -- 46
2019-02-14 00:00:00 8.4 17 Sudeste 28 Sur 0 -- -- 43
2019-02-13 23:00:00 8.1 10 Sudeste 18 Sur 0 -- -- 44
2019-02-13 22:00:00 7.7 4 Nordeste 13 Sudeste 0 -- -- 46
2019-02-13 21:00:00 7.7 9 Este 13 Sudeste 0 -- -- 43
2019-02-13 20:00:00 9.1 0 Calma 0 Calma 0 -- -- 40
2019-02-13 19:00:00 10.6 0 Calma 10 Norte 0 -- -- 38
2019-02-13 18:00:00 12.5 6 Norte 15 Nordeste 0 -- -- 34
2019-02-13 17:00:00 12.9 10 Nordeste 18 Nordeste 0 -- -- 38
2019-02-13 16:00:00 13.2 10 Nordeste 19 Nordeste 0 -- -- 38
2019-02-13 15:00:00 12.6 10 Nordeste 18 Nordeste 0 -- -- 40
2019-02-13 14:00:00 12 8 Norte 18 Nordeste 0 -- -- 40
2019-02-13 13:00:00 11.1 8 Nordeste 19 Nordeste 0 -- -- 43
2019-02-13 12:00:00 10.3 6 Norte 11 Nordeste 0 -- -- 47
2019-02-13 11:00:00 9.6 4 Nordeste 9 Nordeste 0 -- -- 44
2019-02-13 10:00:00 8.1 2 Oeste 3 Oeste 0 -- -- 49
2019-02-13 09:00:00 6.9 0 Calma 4 Sudeste 0 -- -- 47
2019-02-13 08:00:00 5.8 0 Calma 2 Sudeste 0 -- -- 51
2019-02-13 07:00:00 6.2 0 Calma 3 Sudeste 0 -- -- 50
2019-02-13 06:00:00 6.4 0 Calma 2 Sudeste 0 -- -- 49
2019-02-13 05:00:00 6.6 0 Calma 2 Sur 0 -- -- 48
2019-02-13 04:00:00 6.5 2 Sur -- -- 0 -- -- 45
2019-02-13 03:00:00 6.7 3 Sudoeste 4 Sudoeste 0 -- -- 45
2019-02-13 02:00:00 6.9 3 Sudoeste 5 Sudoeste 0 -- -- 47
2019-02-13 01:00:00 7.2 4 Sudoeste 8 Sudoeste 0 -- -- 47
2019-02-13 00:00:00 7 6 Sudoeste 9 Sudoeste 0 -- -- 48
2019-02-12 23:00:00 6.7 5 Sudeste 7 Este 0 -- -- 46
2019-02-12 22:00:00 5.2 0 Calma 0 Calma 0 -- -- 58
2019-02-12 21:00:00 6.6 0 Calma 5 Sudoeste 0 -- -- 48
2019-02-12 20:00:00 7.3 4 Sudoeste 5 Sudoeste 0 -- -- 46
2019-02-12 19:00:00 8.6 3 Oeste 8 Norte 0 -- -- 42
2019-02-12 18:00:00 10.7 5 Norte 13 Norte 0 -- -- 36
2019-02-12 17:00:00 11 7 Norte 17 Norte 0 -- -- 38
2019-02-12 16:00:00 11.4 14 Norte 22 Oeste 0 -- -- 40
2019-02-12 15:00:00 13 4 Oeste 20 Este 0 -- -- 29
2019-02-12 14:00:00 11.6 13 Nordeste 22 Este 0 -- -- 27
2019-02-12 13:00:00 9.3 11 Nordeste 20 Nordeste 0 -- -- 48
2019-02-12 12:00:00 8.9 11 Nordeste 19 Nordeste 0 -- -- 45
2019-02-12 11:00:00 7.8 10 Nordeste 16 Nordeste 0 -- -- 40
2019-02-12 10:00:00 5.5 9 Este 15 Este 0 -- -- 58
2019-02-12 09:00:00 1.3 8 Este 10 Este 0 -- -- 76
2019-02-12 08:00:00 0.2 10 Este 17 Este 0 -- -- 84
2019-02-12 07:00:00 -0.5 12 Este 14 Este 0 -- -- 88
2019-02-12 06:00:00 -1 6 Este 8 Este 0 -- -- 83
2019-02-12 05:00:00 0.1 4 Sudoeste 11 Sudoeste 0 -- -- 81
2019-02-12 04:00:00 0.5 4 Nordeste 11 Sudeste 0 -- -- 81
2019-02-12 03:00:00 0.9 6 Este 8 Nordeste 0 -- -- 80
2019-02-12 02:00:00 0.3 6 Nordeste 8 Nordeste 0 -- -- 85
2019-02-12 01:00:00 0.9 7 Este 12 Este 0 -- -- 83
2019-02-12 00:00:00 -0.4 6 Este 9 Este 0 -- -- 87
2019-02-11 23:00:00 -0.1 9 Este 10 Este 0 -- -- 87
2019-02-11 22:00:00 0.7 6 Este 13 Nordeste 0 -- -- 83
2019-02-11 21:00:00 1.5 6 Este 11 Nordeste 0 -- -- 79
2019-02-11 20:00:00 2.6 8 Nordeste 14 Nordeste 0 -- -- 75
2019-02-11 19:00:00 4 9 Nordeste 21 Nordeste 0 -- -- 71
2019-02-11 18:00:00 5.8 12 Norte 21 Norte 0 -- -- 65
2019-02-11 17:00:00 6.9 12 Norte 24 Norte 0 -- -- 62
2019-02-11 16:00:00 7 12 Norte 21 Nordeste 0 -- -- 61
2019-02-11 15:00:00 6.3 9 Norte 24 Este 0 -- -- 65
2019-02-11 14:00:00 5.7 9 Nordeste 18 Nordeste 0 -- -- 66
2019-02-11 13:00:00 4.9 5 Norte 18 Nordeste 0 -- -- 72
2019-02-11 12:00:00 3.9 8 Nordeste 20 Nordeste 0 -- -- 67
2019-02-11 11:00:00 3.1 10 Nordeste 21 Nordeste 0 -- -- 72
2019-02-11 10:00:00 1.9 9 Nordeste 13 Nordeste 0 -- -- 85
2019-02-11 09:00:00 -0.8 2 Este 3 Este 0 -- -- 95
2019-02-11 08:00:00 -0.9 0 Calma 3 Oeste 0 -- -- 93
2019-02-11 07:00:00 -0.1 2 Noroeste 7 Norte 0 -- -- 94
2019-02-11 06:00:00 0.6 5 Nordeste 14 Nordeste 0 -- -- 97
2019-02-11 05:00:00 1.1 4 Nordeste 7 Nordeste 0 -- -- 99
2019-02-11 04:00:00 1.2 0 Calma 5 Norte 0 -- -- 99
2019-02-11 03:00:00 1.3 4 Norte 16 Noroeste 0 -- -- 99
2019-02-11 02:00:00 1.4 4 Sudoeste 7 Sudoeste 0 -- -- 98
2019-02-11 01:00:00 2.5 2 Norte 13 Noroeste 0 -- -- 96
2019-02-11 00:00:00 3.1 9 Oeste 23 Oeste 0 -- -- 86
2019-02-10 23:00:00 5 14 Oeste 27 Oeste 0 -- -- 81
2019-02-10 22:00:00 5.6 17 Oeste 44 Sudoeste 0 -- -- 90
2019-02-10 21:00:00 7 30 Oeste 49 Sudoeste 0 -- -- 100
2019-02-10 20:00:00 7.2 27 Oeste 49 Oeste 0 -- -- 99
2019-02-10 19:00:00 7.3 32 Sudoeste 50 Sudoeste 0 -- -- 99
2019-02-10 18:00:00 7.5 33 Sudoeste 51 Sudoeste 0 -- -- 98
2019-02-10 17:00:00 7.8 28 Oeste 54 Oeste 0 -- -- 96
2019-02-10 16:00:00 8.3 36 Oeste 58 Sudoeste 0 -- -- 90
2019-02-10 15:00:00 8.8 43 Sudoeste 59 Sudoeste 0 -- -- 82
2019-02-10 14:00:00 8.9 41 Sudoeste 64 Sudoeste 0 -- -- 82
2019-02-10 13:00:00 8.2 39 Sudoeste 58 Sudoeste 0 -- -- 83
2019-02-10 12:00:00 7.2 37 Sudoeste 64 Sudoeste 0 -- -- 85
2019-02-10 11:00:00 6.2 39 Sudoeste 54 Oeste 0 -- -- 88
2019-02-10 10:00:00 6.1 39 Sudoeste 61 Sudoeste 0 -- -- 85
2019-02-10 09:00:00 5.5 35 Sudoeste 53 Sudoeste 0 -- -- 85
2019-02-10 08:00:00 4.9 33 Sudoeste 46 Sudoeste 0 -- -- 85
2019-02-10 07:00:00 4.9 26 Sudoeste 41 Sudoeste 0 -- -- 84
2019-02-10 06:00:00 4.5 26 Sudoeste 43 Sudoeste 0 -- -- 84
2019-02-10 05:00:00 4.4 24 Sudoeste 42 Sudoeste 0 -- -- 85
2019-02-10 04:00:00 4.1 23 Sudoeste 35 Sudoeste 0 -- -- 86
2019-02-10 03:00:00 3.8 22 Sudoeste 39 Sudoeste 0 -- -- 88
2019-02-10 02:00:00 3.7 23 Sudoeste 36 Sudoeste 0 -- -- 92
2019-02-10 01:00:00 3.5 21 Sudoeste 34 Sudoeste 0 -- -- 93
2019-02-10 00:00:00 4 23 Sudoeste 33 Sudoeste 0 -- -- 91
2019-02-09 23:00:00 4.6 23 Sudoeste 35 Sudoeste 0 -- -- 87
2019-02-09 22:00:00 5.3 24 Sudoeste 38 Sudoeste 0 -- -- 82
2019-02-09 21:00:00 6 17 Sudoeste 32 Sudoeste 0 -- -- 75
2019-02-09 20:00:00 6.6 16 Sudoeste 22 Sudoeste 0 -- -- 73
2019-02-09 19:00:00 7.1 13 Sudoeste 24 Sudoeste 0 -- -- 67
2019-02-09 18:00:00 9.5 17 Sudoeste 33 Sudoeste 0 -- -- 58
2019-02-09 17:00:00 10.3 21 Sudoeste 30 Sudoeste 0 -- -- 53
2019-02-09 16:00:00 10.7 21 Sudoeste 31 Sudoeste 0 -- -- 53
2019-02-09 15:00:00 9.9 10 Sudoeste 23 Sudoeste 0 -- -- 64
2019-02-09 14:00:00 9 12 Oeste 20 Oeste 0 -- -- 69
2019-02-09 13:00:00 7.9 10 Oeste 21 Sudoeste 0 -- -- 75
2019-02-09 12:00:00 6.3 14 Sudoeste 24 Oeste 0 -- -- 80
2019-02-09 11:00:00 5.4 15 Sudoeste 24 Sudoeste 0 -- -- 90
2019-02-09 10:00:00 4.8 10 Sudoeste 20 Sudoeste 0 -- -- 91
2019-02-09 09:00:00 4.3 11 Sudoeste 15 Sudoeste 0 -- -- 93
2019-02-09 08:00:00 4.2 9 Sudoeste 14 Sudoeste 0 -- -- 93
2019-02-09 07:00:00 4.2 9 Sudoeste 17 Sudoeste 0 -- -- 93
2019-02-09 06:00:00 4.3 10 Sudoeste 16 Sudoeste 0 -- -- 93
2019-02-09 05:00:00 4.3 10 Sudoeste 18 Sudoeste 0 -- -- 93
2019-02-09 04:00:00 4.2 13 Sudoeste 24 Sudoeste 0 -- -- 94
2019-02-09 03:00:00 3.9 17 Sudoeste 28 Sudoeste 0 -- -- 94
2019-02-09 02:00:00 3.6 18 Sudoeste 28 Sudoeste 0 -- -- 93
2019-02-09 01:00:00 3.5 19 Sudoeste 26 Sudoeste 0 -- -- 94
2019-02-09 00:00:00 3.4 14 Sudoeste 29 Sudoeste 0 -- -- 93
2019-02-08 23:00:00 4.2 16 Sudoeste 33 Sudoeste 0 -- -- 91
2019-02-08 22:00:00 5 22 Sudoeste 35 Sudoeste 0 -- -- 87
2019-02-08 21:00:00 5.3 20 Sudoeste 26 Sudoeste 0 -- -- 86
2019-02-08 20:00:00 6.1 13 Sudoeste 19 Oeste 0 -- -- 73
2019-02-08 19:00:00 7 15 Sudoeste 22 Oeste 0 -- -- 69
2019-02-08 18:00:00 9.9 18 Oeste 27 Oeste 0 -- -- 56
2019-02-08 17:00:00 11.5 18 Oeste 31 Sudoeste 0 -- -- 51
2019-02-08 16:00:00 11.6 20 Oeste 31 Sudoeste 0 -- -- 54
2019-02-08 15:00:00 11.5 20 Sudoeste 33 Sudoeste 0 -- -- 52
2019-02-08 14:00:00 10.5 22 Sudoeste 34 Sudoeste 0 -- -- 57
2019-02-08 13:00:00 9.8 23 Sudoeste 36 Sudoeste 0 -- -- 59
2019-02-08 12:00:00 8.9 18 Sudoeste 28 Sudoeste 0 -- -- 62
2019-02-08 11:00:00 7.6 19 Sudoeste 27 Sudoeste 0 -- -- 71
2019-02-08 10:00:00 4.9 4 Sudoeste 9 Sudoeste 0 -- -- 89
2019-02-08 09:00:00 2.7 6 Sur 7 Sur 0 -- -- 93
2019-02-08 08:00:00 2.9 4 Sudoeste 10 Sudoeste 0 -- -- 89
2019-02-08 07:00:00 3.9 0 Calma 18 Sur 0 -- -- 83
2019-02-08 06:00:00 4.1 12 Sudoeste 20 Sudoeste 0 -- -- 83
2019-02-08 05:00:00 4.7 14 Sudoeste 21 Sudoeste 0 -- -- 80
2019-02-08 04:00:00 4 11 Sudoeste 16 Sudoeste 0 -- -- 86
2019-02-08 03:00:00 4 9 Sudoeste 13 Sur 0 -- -- 86
2019-02-08 02:00:00 4.1 8 Sudoeste 14 Sur 0 -- -- 85
2019-02-08 01:00:00 4.4 12 Sudoeste 15 Sur 0 -- -- 85
2019-02-08 00:00:00 4.3 10 Sur 15 Sur 0 -- -- 85
2019-02-07 23:00:00 4.2 8 Sur 9 Sur 0 -- -- 84
2019-02-07 22:00:00 4.4 9 Sudoeste 13 Sudoeste 0 -- -- 83
2019-02-07 21:00:00 4.9 10 Sudoeste 14 Sudoeste 0 -- -- 83
2019-02-07 20:00:00 4.9 8 Sur 10 Sudoeste 0 -- -- 79
2019-02-07 19:00:00 6.2 4 Sudoeste 17 Oeste 0 -- -- 72
2019-02-07 18:00:00 8.7 13 Oeste 20 Sudoeste 0 -- -- 66
2019-02-07 17:00:00 9.3 15 Oeste 26 Oeste 0 -- -- 65
2019-02-07 16:00:00 9.5 15 Oeste 29 Oeste 0 -- -- 62
2019-02-07 15:00:00 9.5 15 Oeste 24 Oeste 0 -- -- 60
2019-02-07 14:00:00 8.6 11 Sudoeste 24 Sudoeste 0 -- -- 61
2019-02-07 13:00:00 8 12 Oeste 18 Oeste 0 -- -- 61
2019-02-07 12:00:00 7 8 Oeste 20 Sudoeste 0 -- -- 57
2019-02-07 11:00:00 5.5 14 Sudoeste 24 Sudoeste 0 -- -- 66
2019-02-07 10:00:00 3.8 10 Sudoeste 22 Sudoeste 0 -- -- 72
2019-02-07 09:00:00 2.8 17 Sudoeste 21 Sudoeste 0 -- -- 74
2019-02-07 08:00:00 2.2 16 Sudoeste 28 Sudoeste 0 -- -- 80
2019-02-07 07:00:00 2.2 19 Sudoeste 32 Sudoeste 0 -- -- 79
2019-02-07 06:00:00 2.8 19 Sudoeste 27 Sudoeste 0 -- -- 79
2019-02-07 05:00:00 3.4 15 Sudoeste 19 Sudoeste 0 -- -- 73
2019-02-07 04:00:00 4.3 14 Sudoeste 22 Sudoeste 0 -- -- 69
2019-02-07 03:00:00 4.7 18 Sudoeste 26 Sudoeste 0 -- -- 73
2019-02-07 02:00:00 5.5 18 Sudoeste 25 Oeste 0 -- -- 73
2019-02-07 01:00:00 5.8 16 Sudoeste 23 Sudoeste 0 -- -- 78
2019-02-07 00:00:00 6.4 15 Sudoeste 22 Sudoeste 0 -- -- 75
2019-02-06 23:00:00 7.2 16 Sudoeste 24 Sudoeste 0 -- -- 75
2019-02-06 22:00:00 7.6 15 Sudoeste 21 Sudoeste 0 -- -- 75
2019-02-06 21:00:00 7.6 15 Sudoeste 20 Sudoeste 0 -- -- 72
2019-02-06 20:00:00 7.3 14 Sudoeste 18 Sudoeste 0 -- -- 73
2019-02-06 19:00:00 8.3 11 Sudoeste 17 Oeste 0 -- -- 70
2019-02-06 18:00:00 10.6 13 Oeste 27 Oeste 0 -- -- 62
2019-02-06 17:00:00 12.2 17 Oeste 27 Oeste 0 -- -- 55
2019-02-06 16:00:00 12.1 17 Oeste 28 Sudoeste 0 -- -- 56
2019-02-06 15:00:00 12.3 16 Oeste 25 Oeste 0 -- -- 50
2019-02-06 14:00:00 11.8 11 Oeste 17 Oeste 0 -- -- 62
2019-02-06 13:00:00 11.1 6 Norte 12 Noroeste 0 -- -- 67
2019-02-06 12:00:00 10.8 6 Oeste 11 Oeste 0 -- -- 64
2019-02-06 11:00:00 9.7 3 Oeste 6 Oeste 0 -- -- 66
2019-02-06 10:00:00 8.4 0 Calma 2 Este 0 -- -- 73
2019-02-06 09:00:00 6.1 2 Sudeste 3 Sudeste 0 -- -- 78
2019-02-06 08:00:00 5.8 0 Calma 5 Sudeste 0 -- -- 78
2019-02-06 07:00:00 5.5 2 Sudeste 4 Este 0 -- -- 82
2019-02-06 06:00:00 5.2 2 Sudeste 3 Sudeste 0 -- -- 80
2019-02-06 05:00:00 4.5 2 Sudoeste 7 Sur 0 -- -- 86
2019-02-06 04:00:00 6.3 6 Sur 8 Sur 0 -- -- 77
2019-02-06 03:00:00 6 5 Sur 6 Sur 0 -- -- 79
2019-02-06 02:00:00 6.4 3 Sur 5 Sur 0 -- -- 79
2019-02-06 01:00:00 6.1 4 Sur 5 Sur 0 -- -- 80
2019-02-06 00:00:00 5.9 0 Calma 3 Sur 0 -- -- 81
2019-02-05 23:00:00 6.1 3 Sur 5 Sur 0 -- -- 79
2019-02-05 22:00:00 6.7 2 Sudoeste 5 Sur 0 -- -- 76
2019-02-05 21:00:00 6.9 3 Sudoeste 5 Sur 0 -- -- 74
2019-02-05 20:00:00 7.2 2 Sudoeste 3 Norte 0 -- -- 74
2019-02-05 19:00:00 8.2 4 Noroeste 10 Noroeste 0 -- -- 70
2019-02-05 18:00:00 10.1 7 Noroeste 13 Oeste 0 -- -- 64
2019-02-05 17:00:00 11 7 Oeste 15 Oeste 0 -- -- 62
2019-02-05 16:00:00 10.9 7 Noroeste 14 Noroeste 0 -- -- 62
2019-02-05 15:00:00 10.7 6 Noroeste 15 Noroeste 0 -- -- 62
2019-02-05 14:00:00 9.7 7 Noroeste 17 Oeste 0 -- -- 62
2019-02-05 13:00:00 9.5 9 Oeste 20 Oeste 0 -- -- 63
2019-02-05 12:00:00 9 6 Oeste 14 Sudoeste 0 -- -- 60
2019-02-05 11:00:00 8 11 Oeste 15 Oeste 0 -- -- 60
2019-02-05 10:00:00 6.4 6 Sudoeste 11 Sudoeste 0 -- -- 61
2019-02-05 09:00:00 4 9 Sudoeste 12 Sudoeste 0 -- -- 66
2019-02-05 08:00:00 3.9 8 Sur 11 Sur 0 -- -- 66
2019-02-05 07:00:00 4 9 Sur 13 Sur 0 -- -- 63
2019-02-05 06:00:00 4 8 Sur 10 Sur 0 -- -- 64
2019-02-05 05:00:00 3.2 8 Sudoeste 9 Sudoeste 0 -- -- 63
2019-02-05 04:00:00 3.3 6 Sudoeste 10 Sudoeste 0 -- -- 59
2019-02-05 03:00:00 3.4 8 Sudoeste 12 Sudoeste 0 -- -- 58
2019-02-05 02:00:00 2.8 9 Sudoeste 10 Sudoeste 0 -- -- 55
2019-02-05 01:00:00 2.8 7 Sudoeste 11 Sudoeste 0 -- -- 57
2019-02-05 00:00:00 3 8 Sudoeste 10 Sudoeste 0 -- -- 56
2019-02-04 23:00:00 3.2 7 Sudoeste 14 Sudoeste 0 -- -- 59
2019-02-04 22:00:00 3 11 Sudoeste 14 Sudoeste 0 -- -- 59
2019-02-04 21:00:00 3.2 6 Sudoeste 10 Sudoeste 0 -- -- 57
2019-02-04 20:00:00 3.7 8 Sudoeste 13 Sudoeste 0 -- -- 53
2019-02-04 19:00:00 3.5 10 Sudoeste 12 Sudoeste 0 -- -- 53
2019-02-04 18:00:00 5.1 8 Oeste 16 Oeste 0 -- -- 54
2019-02-04 17:00:00 6.7 10 Oeste 19 Oeste 0 -- -- 49
2019-02-04 16:00:00 6.7 11 Oeste 15 Sudoeste 0 -- -- 47
2019-02-04 15:00:00 6.4 6 Oeste 17 Oeste 0 -- -- 51
2019-02-04 14:00:00 4.8 4 Oeste 8 Oeste 0 -- -- 60
2019-02-04 13:00:00 4.6 3 Oeste 6 Noroeste 0 -- -- 53
2019-02-04 12:00:00 3.3 2 Oeste 9 Oeste 0 -- -- 57
2019-02-04 11:00:00 2.3 4 Oeste 8 Sudoeste 0 -- -- 62
2019-02-04 10:00:00 0.5 4 Sudoeste 11 Sudoeste 0 -- -- 71
2019-02-04 09:00:00 -1.6 7 Sudoeste 12 Sur 0 -- -- 76
2019-02-04 08:00:00 -2 8 Sur 12 Sudoeste 0 -- -- 77
2019-02-04 07:00:00 -1.9 7 Sudoeste 9 Sur 0 -- -- 78
2019-02-04 06:00:00 -1.8 7 Sur 13 Sudoeste 0 -- -- 77
2019-02-04 05:00:00 -1.9 9 Sudoeste 12 Sudoeste 0 -- -- 80
2019-02-04 04:00:00 -2 8 Sudoeste 12 Sur 0 -- -- 81
2019-02-04 03:00:00 -2.4 9 Sur 11 Sur 0 -- -- 84
2019-02-04 02:00:00 -2 3 Sudoeste 4 Sudoeste 0 -- -- 83
2019-02-04 01:00:00 -2.6 3 Este 9 Este 0 -- -- 88
2019-02-04 00:00:00 -3.2 6 Este 12 Este 0 -- -- 92
2019-02-03 23:00:00 -3.2 6 Este 11 Este 0 -- -- 94
2019-02-03 22:00:00 -2.4 0 Calma 12 Norte 0 -- -- 92
2019-02-03 21:00:00 -1.9 4 Nordeste 11 Norte 0 -- -- 90
2019-02-03 20:00:00 -1.6 2 Nordeste 17 Noroeste 0 -- -- 88
2019-02-03 19:00:00 -1.1 4 Norte 22 Nordeste 0 -- -- 86
2019-02-03 18:00:00 0.1 14 Nordeste 31 Norte 0 -- -- 79
2019-02-03 17:00:00 0.7 17 Norte 38 Norte 0.2 -- -- 78
2019-02-03 16:00:00 1 20 Norte 33 Nordeste 0.2 -- -- 77
2019-02-03 15:00:00 1 22 Norte 36 Norte 0.4 -- -- 76
2019-02-03 14:00:00 0.5 19 Norte 40 Norte 0.4 -- -- 77
2019-02-03 13:00:00 -0.2 21 Norte 36 Noroeste 0.4 -- -- 81
2019-02-03 12:00:00 -0.5 24 Norte 39 Norte 0 -- -- 81
2019-02-03 11:00:00 -1.2 15 Norte 30 Norte 0 -- -- 88
2019-02-03 10:00:00 -2.2 15 Norte 22 Noroeste 0 -- -- 92
2019-02-03 09:00:00 -3.4 9 Noroeste 16 Noroeste 0 -- -- 98
2019-02-03 08:00:00 -4.1 9 Noroeste 14 Noroeste 0 -- -- 98
2019-02-03 07:00:00 -3.4 9 Noroeste 18 Noroeste 0 -- -- 98
2019-02-03 06:00:00 -3.6 7 Noroeste 22 Noroeste 0 -- -- 97
2019-02-03 05:00:00 -2.8 12 Norte 21 Noroeste 0 -- -- 96
2019-02-03 04:00:00 -2.7 8 Noroeste 23 Noroeste 0 -- -- 95
2019-02-03 03:00:00 -2.7 13 Noroeste 24 Noroeste 0 -- -- 95
2019-02-03 02:00:00 -2.4 15 Noroeste 29 Noroeste 0 -- -- 91
2019-02-03 01:00:00 -2.4 13 Noroeste 23 Noroeste 0 -- -- 94
2019-02-03 00:00:00 -1.8 15 Noroeste 25 Noroeste 0 -- -- 93
2019-02-02 23:00:00 -1.7 9 Noroeste 22 Oeste 0 -- -- 91
2019-02-02 22:00:00 -1.4 11 Oeste 21 Oeste 0 -- -- 91
2019-02-02 21:00:00 -1.6 7 Oeste 14 Oeste 0 -- -- 91
2019-02-02 20:00:00 -1.7 6 Noroeste 13 Noroeste 0 -- -- 93
2019-02-02 19:00:00 -1.1 8 Norte 23 Noroeste 0 -- -- 89
2019-02-02 18:00:00 -0.1 12 Noroeste 24 Norte 0 -- -- 86
2019-02-02 17:00:00 0.3 17 Norte 43 Norte 0 -- -- 75
2019-02-02 16:00:00 0.5 19 Norte 45 Noroeste 0 -- -- 83
2019-02-02 15:00:00 0.6 18 Noroeste 39 Norte 0 -- -- 81
2019-02-02 14:00:00 0.3 19 Norte 41 Noroeste 0.2 -- -- 82
2019-02-02 13:00:00 0.2 19 Noroeste 40 Noroeste 0.2 -- -- 86
2019-02-02 12:00:00 -0.7 18 Noroeste 37 Oeste 0 -- -- 91
2019-02-02 11:00:00 -1.4 23 Oeste 35 Oeste 0 -- -- 93
2019-02-02 10:00:00 -1.7 21 Oeste 36 Oeste 0 -- -- 94
2019-02-02 09:00:00 -2.2 22 Oeste 35 Oeste 0 -- -- 96
2019-02-02 08:00:00 -1.8 24 Oeste 40 Oeste 0 -- -- 97
2019-02-02 07:00:00 -1.7 30 Oeste 42 Oeste 0 -- -- 99
2019-02-02 06:00:00 -1.4 27 Oeste 49 Oeste 0 -- -- 99
2019-02-02 05:00:00 -1.4 34 Oeste 48 Oeste 0 -- -- 100
2019-02-02 04:00:00 -1.1 28 Oeste 54 Sudoeste 0 -- -- 100
2019-02-02 03:00:00 -1 35 Oeste 65 Oeste 0 -- -- 99
2019-02-02 02:00:00 -0.8 33 Oeste 58 Oeste 0 -- -- 100
2019-02-02 01:00:00 -0.5 40 Oeste 61 Oeste 0 -- -- 100
2019-02-02 00:00:00 -0.4 39 Oeste 63 Oeste 0 -- -- 100
2019-02-01 23:00:00 -0.1 44 Oeste 70 Oeste 0 -- -- 99
2019-02-01 22:00:00 -0.1 39 Oeste 58 Oeste 0 -- -- 100
2019-02-01 21:00:00 -0.1 39 Oeste 63 Oeste 0 -- -- 100
2019-02-01 20:00:00 -0.3 39 Oeste 62 Sudoeste 0 -- -- 100
2019-02-01 19:00:00 -0.4 36 Sudoeste 57 Sudoeste 0 -- -- 99
2019-02-01 18:00:00 0.7 41 Oeste 64 Sudoeste 0 -- -- 92
2019-02-01 17:00:00 0.9 41 Oeste 68 Sudoeste 0 -- -- 95
2019-02-01 16:00:00 0.3 43 Sudoeste 80 Sudoeste 0.2 -- -- 99
2019-02-01 15:00:00 1.4 54 Sudoeste 85 Sudoeste 0.2 -- -- 94
2019-02-01 14:00:00 3 42 Sudoeste 81 Sudoeste 0.2 -- -- 86
2019-02-01 13:00:00 3 45 Sudoeste 76 Sudoeste 0 -- -- 85
2019-02-01 12:00:00 2.6 44 Sudoeste 68 Sudoeste 0 -- -- 84
2019-02-01 11:00:00 2 39 Sudoeste 70 Sudoeste 0 -- -- 90
2019-02-01 10:00:00 1.6 33 Sudoeste 68 Sur 0 -- -- 94
2019-02-01 09:00:00 1.6 33 Sudoeste 62 Oeste 0 -- -- 94
2019-02-01 08:00:00 2 38 Sudoeste 73 Sudoeste 0 -- -- 94
2019-02-01 07:00:00 2.4 35 Sudoeste 58 Sudoeste 0 -- -- 95
2019-02-01 06:00:00 2.6 38 Sudoeste 58 Sudoeste 0 -- -- 94
2019-02-01 05:00:00 2.6 33 Sudoeste 64 Sudoeste 0 -- -- 94
2019-02-01 04:00:00 3.8 31 Sudoeste 57 Sudoeste 0 -- -- 98
2019-02-01 03:00:00 3.7 28 Sudoeste 55 Oeste 0 -- -- 99
2019-02-01 02:00:00 5.2 41 Oeste 64 Oeste 0.4 -- -- 98
2019-02-01 01:00:00 6.4 41 Sudoeste 70 Sudoeste 5.2 -- -- 100
2019-02-01 00:00:00 6.3 36 Sudoeste 58 Sudoeste 4.8 -- -- 99
2019-01-31 23:00:00 6.7 36 Sudoeste 61 Sudoeste 1.2 -- -- 96
2019-01-31 22:00:00 7.2 34 Sudoeste 61 Sudoeste 0 -- -- 92
2019-01-31 21:00:00 7.6 42 Sudoeste 67 Sudoeste 0 -- -- 89
2019-01-31 20:00:00 7.7 45 Sudoeste 68 Sudoeste 0.2 -- -- 92
2019-01-31 19:00:00 7.8 46 Sudoeste 72 Sudoeste 0 -- -- 92
2019-01-31 18:00:00 8.6 41 Sudoeste 77 Sudoeste 0 -- -- 90
2019-01-31 17:00:00 8.5 42 Sudoeste 73 Sudoeste 0 -- -- 93
2019-01-31 16:00:00 8.8 47 Sudoeste 69 Oeste 0 -- -- 93
2019-01-31 15:00:00 8.6 39 Sudoeste 65 Oeste 0.2 -- -- 95
2019-01-31 14:00:00 8.8 43 Oeste 66 Sudoeste 0 -- -- 95
2019-01-31 13:00:00 7.6 42 Sudoeste 63 Oeste 0 -- -- 100
2019-01-31 12:00:00 6.7 40 Sudoeste 61 Sudoeste 0 -- -- 100
2019-01-31 11:00:00 5.9 42 Sudoeste 61 Sudoeste 0 -- -- 100
2019-01-31 10:00:00 5.1 38 Sudoeste 58 Sudoeste 0.4 -- -- 100
2019-01-31 09:00:00 4.9 37 Sudoeste 63 Sudoeste 1 -- -- 100
2019-01-31 08:00:00 5.5 43 Sudoeste 66 Oeste 0 -- -- 100
2019-01-31 07:00:00 6 45 Sudoeste 68 Sudoeste 0.2 -- -- 100
2019-01-31 06:00:00 6.5 45 Sudoeste 72 Sudoeste 0.2 -- -- 100
2019-01-31 05:00:00 6.4 43 Sudoeste 66 Sudoeste 0.4 -- -- 100
2019-01-31 04:00:00 6.4 41 Oeste 65 Sudoeste 0.6 -- -- 100
2019-01-31 03:00:00 6.2 39 Sudoeste 69 Oeste 0.4 -- -- 100
2019-01-31 02:00:00 5.8 41 Sudoeste 66 Sudoeste 0.2 -- -- 100
2019-01-31 01:00:00 5.4 39 Sudoeste 57 Sudoeste 0.6 -- -- 100
2019-01-31 00:00:00 5.1 36 Sudoeste 62 Sudoeste 1 -- -- 100
2019-01-30 23:00:00 4.5 41 Sudoeste 67 Oeste 0.4 -- -- 100
2019-01-30 22:00:00 4 40 Sudoeste 61 Sudoeste 1 -- -- 100
2019-01-30 21:00:00 3.3 38 Sudoeste 56 Sudoeste 1 -- -- 100
2019-01-30 20:00:00 1.8 31 Sudoeste 41 Sudoeste 1 -- -- 100
2019-01-30 19:00:00 0.8 23 Sudoeste 38 Sudoeste 0.4 -- -- 99
2019-01-30 18:00:00 0.8 24 Sudoeste 37 Sudoeste 0.6 -- -- 98
2019-01-30 17:00:00 1.2 23 Sudoeste 43 Oeste 0.2 -- -- 94
2019-01-30 16:00:00 3.1 34 Sudoeste 52 Sudoeste 0 -- -- 70
2019-01-30 15:00:00 4.1 40 Sudoeste 53 Sudoeste 0 -- -- 64
2019-01-30 14:00:00 3.4 34 Sudoeste 45 Sudoeste 0 -- -- 72
2019-01-30 13:00:00 2 22 Oeste 40 Sudoeste 0 -- -- 87
2019-01-30 12:00:00 0.6 24 Oeste 39 Oeste 0 -- -- 97
2019-01-30 11:00:00 -1.1 24 Oeste 36 Oeste 0 -- -- 100
2019-01-30 10:00:00 -1.3 23 Sudoeste 35 Sudoeste 0 -- -- 100
2019-01-30 09:00:00 -1.6 21 Sudoeste 31 Sudoeste 0 -- -- 100
2019-01-30 08:00:00 -1.2 17 Sudoeste 27 Sudoeste 0 -- -- 100
2019-01-30 07:00:00 -1 17 Sudoeste 24 Sudoeste 0 -- -- 99
2019-01-30 06:00:00 -0.7 15 Sudoeste 24 Sudoeste 0 -- -- 98
2019-01-30 05:00:00 -0.5 15 Sudoeste 24 Oeste 0 -- -- 97
2019-01-30 04:00:00 -0.2 19 Oeste 36 Sudoeste 0 -- -- 98
2019-01-30 03:00:00 0.2 21 Sudoeste 31 Sudoeste 0 -- -- 98
2019-01-30 02:00:00 0.6 21 Sudoeste 31 Sudoeste 0 -- -- 96
2019-01-30 01:00:00 1 23 Sudoeste 35 Sudoeste 0 -- -- 94
2019-01-30 00:00:00 1 22 Oeste 29 Oeste 0 -- -- 90
2019-01-29 23:00:00 1 17 Oeste 34 Oeste 0 -- -- 89
2019-01-29 22:00:00 1.5 24 Oeste 39 Oeste 0 -- -- 89
2019-01-29 21:00:00 1.9 26 Oeste 37 Oeste 0 -- -- 90
2019-01-29 20:00:00 2.4 20 Oeste 37 Oeste 0 -- -- 92
2019-01-29 19:00:00 3.5 24 Oeste 41 Oeste 0 -- -- 98
2019-01-29 18:00:00 4.5 27 Oeste 69 Oeste 0.6 -- -- 99
2019-01-29 17:00:00 4.6 38 Oeste 71 Sudoeste 0.4 -- -- 100
2019-01-29 16:00:00 4.7 42 Oeste 72 Oeste 0 -- -- 99
2019-01-29 15:00:00 4.4 41 Oeste 58 Oeste 0 -- -- 100
2019-01-29 14:00:00 3.9 42 Sudoeste 57 Sudoeste 0 -- -- 100
2019-01-29 13:00:00 3.4 39 Sudoeste 59 Sudoeste 0 -- -- 100
2019-01-29 12:00:00 2.9 36 Sudoeste 55 Sudoeste 0 -- -- 100
2019-01-29 11:00:00 2 36 Sudoeste 53 Sudoeste 0 -- -- 100
2019-01-29 10:00:00 1.5 34 Sudoeste 54 Sudoeste 0 -- -- 100
2019-01-29 09:00:00 0.6 34 Sudoeste 49 Sudoeste 0 -- -- 100
2019-01-29 08:00:00 0 31 Sudoeste 43 Sudoeste 0 -- -- 100
2019-01-29 07:00:00 -0.4 29 Sudoeste 43 Sudoeste 0 -- -- 100
2019-01-29 06:00:00 -0.4 28 Sudoeste 37 Sudoeste 0 -- -- 99
2019-01-29 05:00:00 -0.6 22 Sudoeste 32 Sudoeste 0 -- -- 98
2019-01-29 04:00:00 -0.5 19 Sudoeste 26 Sudoeste 0 -- -- 94
2019-01-29 03:00:00 -0.1 12 Sudoeste 18 Sudoeste 0 -- -- 89
2019-01-29 02:00:00 -0.1 10 Sudoeste 13 Sudoeste 0 -- -- 87
2019-01-29 01:00:00 0.1 6 Sudoeste 10 Oeste 0 -- -- 86
2019-01-29 00:00:00 0.6 5 Sudoeste 19 Oeste 0 -- -- 84
2019-01-28 23:00:00 1 11 Oeste 20 Oeste 0 -- -- 84
2019-01-28 22:00:00 2 14 Oeste 27 Oeste 0 -- -- 79
2019-01-28 21:00:00 2.6 14 Oeste 28 Noroeste 0 -- -- 76
2019-01-28 20:00:00 4.6 20 Noroeste 33 Noroeste 0 -- -- 66
2019-01-28 19:00:00 5 15 Oeste 36 Noroeste 0 -- -- 65
2019-01-28 18:00:00 7.1 26 Oeste 45 Oeste 0 -- -- 61
2019-01-28 17:00:00 7.9 32 Oeste 51 Oeste 0 -- -- 61
2019-01-28 16:00:00 7.7 33 Oeste 47 Oeste 0 -- -- 72
2019-01-28 15:00:00 6.5 31 Oeste 51 Oeste 0 -- -- 78
2019-01-28 14:00:00 6.2 33 Oeste 53 Oeste 0 -- -- 81
2019-01-28 13:00:00 4.6 35 Oeste 52 Oeste 0 -- -- 94
2019-01-28 12:00:00 2.4 28 Sudoeste 47 Sudoeste 0 -- -- 100
2019-01-28 11:00:00 1.5 32 Sudoeste 56 Sudoeste 0 -- -- 100
2019-01-28 10:00:00 1.3 35 Sudoeste 50 Sudoeste 0 -- -- 100
2019-01-28 09:00:00 0.7 33 Sudoeste 52 Sudoeste 0 -- -- 99
2019-01-28 08:00:00 0.3 30 Sudoeste 53 Sudoeste 0 -- -- 97
2019-01-28 07:00:00 0.3 34 Sudoeste 52 Sudoeste 0 -- -- 94
2019-01-28 06:00:00 -0.1 32 Sudoeste 48 Sudoeste 0 -- -- 92
2019-01-28 05:00:00 -0.1 29 Sudoeste 42 Sudoeste 0 -- -- 91
2019-01-28 04:00:00 -0.2 29 Sudoeste 46 Oeste 0 -- -- 90
2019-01-28 03:00:00 -0.5 26 Sudoeste 40 Sudoeste 0 -- -- 91
2019-01-28 02:00:00 -0.5 24 Sudoeste 36 Sudoeste 0 -- -- 90
2019-01-28 01:00:00 -0.4 17 Oeste 26 Sudoeste 0 -- -- 92
2019-01-28 00:00:00 0.1 14 Oeste 26 Oeste 0 -- -- 88
2019-01-27 23:00:00 0.2 11 Oeste 21 Oeste 0 -- -- 82
2019-01-27 22:00:00 1 12 Oeste 25 Oeste 0 -- -- 71
2019-01-27 21:00:00 2.1 17 Oeste 28 Oeste 0 -- -- 71
2019-01-27 20:00:00 2.8 16 Oeste 27 Oeste 0 -- -- 73
2019-01-27 19:00:00 3.2 13 Oeste 35 Oeste 0 -- -- 67
2019-01-27 18:00:00 5.1 17 Oeste 48 Oeste 0 -- -- 63
2019-01-27 17:00:00 6.5 33 Oeste 54 Oeste 0 -- -- 56
2019-01-27 16:00:00 6.3 25 Oeste 42 Oeste 0 -- -- 60
2019-01-27 15:00:00 6.1 26 Oeste 42 Oeste 0 -- -- 59
2019-01-27 14:00:00 5.5 29 Oeste 49 Oeste 0 -- -- 65
2019-01-27 13:00:00 5 34 Oeste 47 Oeste 0 -- -- 68
2019-01-27 12:00:00 3.8 26 Oeste 40 Oeste 0 -- -- 81
2019-01-27 11:00:00 2.2 25 Oeste 39 Oeste 0 -- -- 98
2019-01-27 10:00:00 0.6 24 Oeste 41 Sudoeste 0 -- -- 100
2019-01-27 09:00:00 0.6 22 Oeste 43 Oeste 0 -- -- 100
2019-01-27 08:00:00 1 26 Oeste 41 Sudoeste 0 -- -- 100
2019-01-27 07:00:00 1.5 31 Sudoeste 40 Sudoeste 0 -- -- 99
2019-01-27 06:00:00 1.8 24 Sudoeste 41 Sudoeste 0 -- -- 98
2019-01-27 05:00:00 1.8 30 Sudoeste 45 Sudoeste 0 -- -- 98
2019-01-27 04:00:00 2.1 25 Sudoeste 38 Sudoeste 0 -- -- 94
2019-01-27 03:00:00 2.9 27 Sudoeste 38 Sudoeste 0 -- -- 90
2019-01-27 02:00:00 3.3 27 Sudoeste 38 Sudoeste 0 -- -- 86
2019-01-27 01:00:00 3.6 24 Sudoeste 38 Sudoeste 0 -- -- 82
2019-01-27 00:00:00 4.8 24 Sudoeste 39 Sudoeste 0 -- -- 78
2019-01-26 23:00:00 6.3 25 Sudoeste 34 Sudoeste 0 -- -- 73
2019-01-26 22:00:00 6.4 19 Sudoeste 29 Sudoeste 0 -- -- 68
2019-01-26 21:00:00 6.4 20 Sudoeste 28 Sudoeste 0 -- -- 69
2019-01-26 20:00:00 5.8 11 Sudoeste 15 Sudoeste 0 -- -- 76
2019-01-26 19:00:00 6.4 9 Sudoeste 14 Oeste 0 -- -- 75
2019-01-26 18:00:00 9.7 11 Oeste 20 Sudoeste 0 -- -- 65
2019-01-26 17:00:00 11.1 14 Sudoeste 25 Sudoeste 0 -- -- 53
2019-01-26 16:00:00 11.1 14 Sudoeste 21 Oeste 0 -- -- 54
2019-01-26 15:00:00 10.1 13 Oeste 21 Oeste 0 -- -- 60
2019-01-26 14:00:00 10.2 12 Oeste 20 Oeste 0 -- -- 55
2019-01-26 13:00:00 8.9 9 Oeste 15 Oeste 0 -- -- 69
2019-01-26 12:00:00 7.1 5 Sudoeste 10 Sudoeste 0 -- -- 79
2019-01-26 11:00:00 5.7 6 Sudoeste 11 Sudoeste 0 -- -- 85
2019-01-26 10:00:00 4 5 Sudoeste 8 Sudoeste 0 -- -- 89
2019-01-26 09:00:00 3 4 Sudoeste 5 Sudoeste 0 -- -- 89
2019-01-26 08:00:00 2.6 4 Sudeste 5 Sudeste 0 -- -- 87
2019-01-26 07:00:00 3.1 2 Sur -- -- 0 -- -- 86
2019-01-26 06:00:00 2.6 -- -- -- -- 0 -- -- 83
2019-01-26 05:00:00 2.8 0 Calma 4 Este 0 -- -- 84
2019-01-26 04:00:00 2.8 3 Sudeste 10 Este 0 -- -- 86
2019-01-26 03:00:00 1.7 2 Sur 10 Este 0 -- -- 97
2019-01-26 02:00:00 0 9 Este 10 Este 0 -- -- 97
2019-01-26 01:00:00 1.4 3 Nordeste 7 Norte 0 -- -- 96
2019-01-26 00:00:00 2.1 4 Nordeste 10 Norte 0 -- -- 92
2019-01-25 23:00:00 1.9 4 Nordeste 19 Norte 0 -- -- 96
2019-01-25 22:00:00 2.2 11 Nordeste 18 Nordeste 0 -- -- 94
2019-01-25 21:00:00 3 4 Nordeste 12 Nordeste 0 -- -- 90
2019-01-25 20:00:00 3.7 7 Nordeste 17 Norte 0 -- -- 89
2019-01-25 19:00:00 4.8 8 Nordeste 21 Norte 0 -- -- 87
2019-01-25 18:00:00 5.6 9 Norte 21 Norte 0 -- -- 83
2019-01-25 17:00:00 6.2 8 Noroeste 29 Nordeste 0 -- -- 79
2019-01-25 16:00:00 6.6 14 Norte 30 Norte 0 -- -- 79
2019-01-25 15:00:00 6.9 17 Norte 28 Norte 0 -- -- 78
2019-01-25 14:00:00 6.4 15 Norte 32 Noroeste 0 -- -- 84
2019-01-25 13:00:00 5.6 12 Noroeste 23 Norte 0 -- -- 90
2019-01-25 12:00:00 5.1 10 Noroeste 20 Norte 0 -- -- 93
2019-01-25 11:00:00 4 8 Oeste 13 Oeste 0 -- -- 97
2019-01-25 10:00:00 4.1 7 Oeste 13 Oeste 0 -- -- 97
2019-01-25 09:00:00 4.2 5 Noroeste 14 Noroeste 0 -- -- 97
2019-01-25 08:00:00 4.5 9 Norte 22 Noroeste 0 -- -- 96
2019-01-25 07:00:00 4.2 12 Noroeste 22 Norte 0 -- -- 97
2019-01-25 06:00:00 4.1 12 Norte 21 Norte 0 -- -- 99
2019-01-25 05:00:00 3.7 12 Norte 24 Noroeste 0 -- -- 100
2019-01-25 04:00:00 4 12 Norte 25 Norte 0 -- -- 100
2019-01-25 03:00:00 4.4 14 Norte 24 Norte 0 -- -- 100
2019-01-25 02:00:00 4.5 11 Norte 20 Norte 0 -- -- 100
2019-01-25 01:00:00 4.6 10 Noroeste 24 Norte 0 -- -- 99
2019-01-25 00:00:00 5 15 Norte 23 Norte 0 -- -- 99
2019-01-24 23:00:00 4.7 13 Norte 26 Norte 0 -- -- 99
2019-01-24 22:00:00 4.7 10 Noroeste 22 Norte 0 -- -- 98
2019-01-24 21:00:00 5.1 12 Norte 30 Nordeste 0 -- -- 97
2019-01-24 20:00:00 5.8 21 Norte 35 Norte 0 -- -- 94
2019-01-24 19:00:00 6 14 Norte 31 Norte 0 -- -- 96
2019-01-24 18:00:00 6.2 12 Norte 30 Nordeste 0 -- -- 95
2019-01-24 17:00:00 6.6 19 Norte 29 Norte 0 -- -- 93
2019-01-24 16:00:00 6.6 19 Norte 36 Norte 0 -- -- 94
2019-01-24 15:00:00 7 17 Norte 31 Noroeste 0 -- -- 94
2019-01-24 14:00:00 6.9 20 Noroeste 29 Noroeste 0 -- -- 98
2019-01-24 13:00:00 6.5 16 Oeste 27 Oeste 0 -- -- 100
2019-01-24 12:00:00 5.4 15 Oeste 27 Oeste 0 -- -- 100
2019-01-24 11:00:00 4.5 15 Oeste 31 Oeste 0 -- -- 100
2019-01-24 10:00:00 3.9 16 Oeste 31 Oeste 0 -- -- 100
2019-01-24 09:00:00 3.4 15 Oeste 24 Oeste 0 -- -- 100
2019-01-24 08:00:00 3.5 13 Oeste 23 Oeste 0.4 -- -- 100
2019-01-24 07:00:00 3.5 11 Oeste 21 Oeste 0.2 -- -- 100
2019-01-24 06:00:00 3.5 10 Oeste 24 Oeste 0.6 -- -- 100
2019-01-24 05:00:00 3.5 18 Oeste 32 Sudoeste 0 -- -- 100
2019-01-24 04:00:00 3.5 22 Oeste 31 Oeste 0 -- -- 100
2019-01-24 03:00:00 3.5 24 Oeste 36 Oeste 0 -- -- 100
2019-01-24 02:00:00 3.8 20 Oeste 30 Oeste 0 -- -- 99
2019-01-24 01:00:00 4 17 Oeste 24 Oeste 0 -- -- 97
2019-01-24 00:00:00 4.5 18 Oeste 36 Oeste 0 -- -- 95